createdAt,value
2023-01-07T00:01:35.051Z,102325.94
2023-01-07T00:04:04.093Z,102327.63
2023-01-07T00:06:34.452Z,102319.59
2023-01-07T00:09:02.506Z,102324.81
2023-01-07T00:11:34.025Z,102326.72
2023-01-07T00:14:01.960Z,102321.38
2023-01-07T00:16:31.939Z,102323.91
2023-01-07T00:19:01.503Z,102324.81
2023-01-07T00:21:29.527Z,102316.91
2023-01-07T00:23:59.608Z,102320.47
2023-01-07T00:26:30.576Z,102316.94
2023-01-07T00:28:58.298Z,102321.44
2023-01-07T00:31:34.365Z,102320.66
2023-01-07T00:34:02.070Z,102317.00
2023-01-07T00:36:31.809Z,102316.16
2023-01-07T00:39:01.294Z,102311.00
2023-01-07T00:41:29.025Z,102316.94
2023-01-07T00:43:56.523Z,102314.25
2023-01-07T00:46:24.222Z,102314.19
2023-01-07T00:48:51.411Z,102311.44
2023-01-07T00:51:19.336Z,102312.38
2023-01-07T00:53:46.868Z,102318.63
2023-01-07T00:56:15.210Z,102303.84
2023-01-07T00:58:42.379Z,102312.63
2023-01-07T01:01:11.050Z,102309.03
2023-01-07T01:03:39.062Z,102303.69
2023-01-07T01:06:09.482Z,102307.06
2023-01-07T01:08:36.605Z,102305.28
2023-01-07T01:11:05.817Z,102305.19
2023-01-07T01:13:34.464Z,102312.22
2023-01-07T01:16:02.295Z,102305.63
2023-01-07T01:18:29.464Z,102307.41
2023-01-07T01:20:56.526Z,102301.00
2023-01-07T01:23:23.659Z,102302.81
2023-01-07T01:25:50.794Z,102290.72
2023-01-07T01:28:18.165Z,102297.78
2023-01-07T01:30:45.950Z,102293.19
2023-01-07T01:33:13.317Z,102296.63
2023-01-07T01:35:41.247Z,102295.78
2023-01-07T01:38:09.032Z,102293.97
2023-01-07T01:40:36.316Z,102293.13
2023-01-07T01:43:05.255Z,102285.31
2023-01-07T01:45:32.511Z,102286.56
2023-01-07T01:48:05.040Z,102289.09
2023-01-07T01:50:38.401Z,102282.91
2023-01-07T01:53:27.772Z,102283.19
2023-01-07T01:56:14.303Z,102274.59
2023-01-07T01:58:47.169Z,102279.53
2023-01-07T02:01:14.944Z,102274.34
2023-01-07T02:03:44.051Z,102272.44
2023-01-07T02:06:27.397Z,102280.53
2023-01-07T02:08:55.554Z,102271.06
2023-01-07T02:11:28.991Z,102269.31
2023-01-07T02:14:40.625Z,102270.16
2023-01-07T02:17:15.260Z,102276.16
2023-01-07T02:20:10.676Z,102271.84
2023-01-07T02:23:07.425Z,102268.25
2023-01-07T02:26:05.106Z,102262.88
2023-01-07T02:28:52.080Z,102262.81
2023-01-07T02:31:35.747Z,102254.09
2023-01-07T02:34:42.435Z,102250.56
2023-01-07T02:37:19.547Z,102252.25
2023-01-07T02:40:06.676Z,102241.72
2023-01-07T02:42:54.483Z,102246.25
2023-01-07T02:45:32.237Z,102248.03
2023-01-07T02:48:05.228Z,102242.66
2023-01-07T02:50:32.528Z,102247.25
2023-01-07T02:52:59.695Z,102236.47
2023-01-07T02:55:40.077Z,102232.16
2023-01-07T02:58:22.428Z,102229.47
2023-01-07T03:01:02.431Z,102234.78
2023-01-07T03:04:08.292Z,102232.28
2023-01-07T03:06:50.599Z,102233.03
2023-01-07T03:09:20.528Z,102236.59
2023-01-07T03:12:15.523Z,102229.63
2023-01-07T03:14:49.624Z,102226.19
2023-01-07T03:17:25.453Z,102224.34
2023-01-07T03:19:56.735Z,102226.84
2023-01-07T03:22:26.815Z,102221.56
2023-01-07T03:24:57.548Z,102219.88
2023-01-07T03:27:27.563Z,102229.44
2023-01-07T03:29:56.111Z,102226.84
2023-01-07T03:32:29.286Z,102224.19
2023-01-07T03:34:57.462Z,102222.25
2023-01-07T03:37:27.022Z,102217.97
2023-01-07T03:39:54.729Z,102216.44
2023-01-07T03:42:42.705Z,102215.38
2023-01-07T03:45:19.246Z,102218.66
2023-01-07T03:47:48.691Z,102219.75
2023-01-07T03:50:17.007Z,102214.53
2023-01-07T03:52:46.061Z,102215.38
2023-01-07T03:55:14.043Z,102212.72
2023-01-07T03:57:41.559Z,102221.44
2023-01-07T04:00:11.898Z,102219.66
2023-01-07T04:02:44.535Z,102220.59
2023-01-07T04:05:21.346Z,102222.34
2023-01-07T04:07:48.931Z,102223.00
2023-01-07T04:10:16.839Z,102222.34
2023-01-07T04:12:44.087Z,102222.34
2023-01-07T04:15:11.513Z,102222.22
2023-01-07T04:17:39.070Z,102219.81
2023-01-07T04:20:07.875Z,102221.56
2023-01-07T04:22:36.080Z,102225.16
2023-01-07T04:25:03.563Z,102219.75
2023-01-07T04:27:31.891Z,102218.75
2023-01-07T04:29:59.250Z,102221.44
2023-01-07T04:32:26.836Z,102223.34
2023-01-07T04:34:53.957Z,102221.53
2023-01-07T04:37:21.859Z,102225.19
2023-01-07T04:39:50.537Z,102222.50
2023-01-07T04:42:18.239Z,102230.44
2023-01-07T04:44:45.557Z,102222.63
2023-01-07T04:47:13.191Z,102222.50
2023-01-07T04:49:40.289Z,102222.69
2023-01-07T04:52:08.919Z,102224.47
2023-01-07T04:54:37.262Z,102212.06
2023-01-07T04:57:04.631Z,102219.84
2023-01-07T04:59:32.749Z,102215.44
2023-01-07T05:02:02.198Z,102215.50
2023-01-07T05:04:29.564Z,102219.19
2023-01-07T05:06:57.884Z,102213.06
2023-01-07T05:09:28.256Z,102212.06
2023-01-07T05:11:56.101Z,102216.28
2023-01-07T05:14:23.301Z,102217.38
2023-01-07T05:16:53.696Z,102216.38
2023-01-07T05:19:21.831Z,102219.19
2023-01-07T05:21:49.597Z,102220.81
2023-01-07T05:24:17.604Z,102213.63
2023-01-07T05:26:45.687Z,102214.66
2023-01-07T05:29:13.837Z,102223.47
2023-01-07T05:31:44.075Z,102214.81
2023-01-07T05:34:11.253Z,102220.94
2023-01-07T05:36:38.553Z,102210.28
2023-01-07T05:39:06.702Z,102219.91
2023-01-07T05:41:34.296Z,102213.88
2023-01-07T05:44:02.163Z,102219.31
2023-01-07T05:46:29.272Z,102210.53
2023-01-07T05:48:56.371Z,102216.66
2023-01-07T05:51:23.456Z,102223.63
2023-01-07T05:53:50.559Z,102215.66
2023-01-07T05:56:17.636Z,102217.50
2023-01-07T05:58:45.350Z,102222.91
2023-01-07T06:01:12.860Z,102225.50
2023-01-07T06:03:40.131Z,102219.25
2023-01-07T06:06:07.483Z,102226.16
2023-01-07T06:08:36.526Z,102227.09
2023-01-07T06:11:05.002Z,102234.34
2023-01-07T06:13:32.820Z,102235.25
2023-01-07T06:16:05.832Z,102223.84
2023-01-07T06:18:33.152Z,102227.41
2023-01-07T06:21:00.456Z,102226.44
2023-01-07T06:23:27.884Z,102231.69
2023-01-07T06:25:54.997Z,102227.28
2023-01-07T06:28:22.076Z,102223.84
2023-01-07T06:30:49.216Z,102228.88
2023-01-07T06:33:17.189Z,102228.31
2023-01-07T06:35:45.376Z,102233.56
2023-01-07T06:38:12.888Z,102229.06
2023-01-07T06:40:40.093Z,102225.50
2023-01-07T06:43:07.206Z,102228.06
2023-01-07T06:45:34.365Z,102235.97
2023-01-07T06:48:01.734Z,102226.25
2023-01-07T06:50:28.841Z,102231.47
2023-01-07T06:52:56.893Z,102228.69
2023-01-07T06:55:24.091Z,102227.78
2023-01-07T06:57:51.208Z,102220.97
2023-01-07T07:00:18.493Z,102220.78
2023-01-07T07:02:45.661Z,102221.03
2023-01-07T07:05:12.892Z,102218.72
2023-01-07T07:07:40.020Z,102219.56
2023-01-07T07:10:08.612Z,102222.13
2023-01-07T07:12:37.747Z,102213.97
2023-01-07T07:15:07.556Z,102221.59
2023-01-07T07:17:35.220Z,102219.69
2023-01-07T07:20:02.453Z,102214.34
2023-01-07T07:22:29.785Z,102212.63
2023-01-07T07:24:56.960Z,102220.47
2023-01-07T07:27:24.053Z,102217.72
2023-01-07T07:29:51.186Z,102215.75
2023-01-07T07:32:18.351Z,102215.63
2023-01-07T07:34:45.440Z,102211.31
2023-01-07T07:37:12.563Z,102214.13
2023-01-07T07:39:39.626Z,102209.88
2023-01-07T07:42:06.700Z,102213.22
2023-01-07T07:44:33.858Z,102212.03
2023-01-07T07:47:00.922Z,102215.34
2023-01-07T07:49:28.075Z,102208.44
2023-01-07T07:51:55.351Z,102217.19
2023-01-07T07:54:23.890Z,102218.56
2023-01-07T07:56:51.183Z,102217.13
2023-01-07T07:59:18.281Z,102213.53
2023-01-07T08:01:45.448Z,102214.91
2023-01-07T08:04:12.563Z,102217.06
2023-01-07T08:06:39.629Z,102215.16
2023-01-07T08:09:06.832Z,102225.53
2023-01-07T08:11:34.031Z,102215.09
2023-01-07T08:14:01.170Z,102215.53
2023-01-07T08:16:28.404Z,102211.75
2023-01-07T08:18:55.503Z,102211.13
2023-01-07T08:21:22.588Z,102215.25
2023-01-07T08:23:49.660Z,102211.91
2023-01-07T08:26:16.789Z,102211.50
2023-01-07T08:28:46.471Z,102215.81
2023-01-07T08:31:13.956Z,102214.59
2023-01-07T08:33:41.191Z,102215.16
2023-01-07T08:36:21.743Z,102220.13
2023-01-07T08:38:51.723Z,102214.31
2023-01-07T08:41:20.215Z,102218.91
2023-01-07T08:43:47.427Z,102218.41
2023-01-07T08:46:14.655Z,102213.47
2023-01-07T08:48:41.994Z,102210.69
2023-01-07T08:51:09.112Z,102216.47
2023-01-07T08:53:36.245Z,102224.00
2023-01-07T08:56:03.467Z,102220.09
2023-01-07T08:58:30.625Z,102211.66
2023-01-07T09:01:06.398Z,102226.97
2023-01-07T09:03:34.752Z,102218.56
2023-01-07T09:06:02.217Z,102220.75
2023-01-07T09:08:29.339Z,102224.50
2023-01-07T09:10:56.567Z,102224.03
2023-01-07T09:13:23.706Z,102215.94
2023-01-07T09:15:50.889Z,102213.44
2023-01-07T09:18:18.017Z,102218.38
2023-01-07T09:20:45.171Z,102220.94
2023-01-07T09:23:12.371Z,102226.44
2023-01-07T09:25:39.469Z,102223.63
2023-01-07T09:28:06.528Z,102222.84
2023-01-07T09:30:34.184Z,102225.22
2023-01-07T09:33:01.291Z,102218.81
2023-01-07T09:35:29.180Z,102221.72
2023-01-07T09:37:57.692Z,102221.22
2023-01-07T09:40:29.857Z,102225.91
2023-01-07T09:43:22.976Z,102227.19
2023-01-07T09:45:53.817Z,102225.81
2023-01-07T09:48:26.889Z,102228.38
2023-01-07T09:51:12.358Z,102229.16
2023-01-07T09:53:43.862Z,102224.16
2023-01-07T09:56:21.147Z,102223.75
2023-01-07T09:58:48.690Z,102223.69
2023-01-07T10:01:24.778Z,102218.47
2023-01-07T10:04:09.153Z,102218.72
2023-01-07T10:07:05.598Z,102220.84
2023-01-07T10:10:11.016Z,102207.41
2023-01-07T10:12:50.179Z,102206.59
2023-01-07T10:15:58.915Z,102197.31
2023-01-07T10:18:38.055Z,102196.13
2023-01-07T10:21:33.631Z,102184.94
2023-01-07T10:24:10.623Z,102179.63
2023-01-07T10:26:42.876Z,102186.84
2023-01-07T10:29:17.052Z,102180.28
2023-01-07T10:31:45.539Z,102181.53
2023-01-07T10:34:16.456Z,102167.78
2023-01-07T10:36:58.514Z,102170.78
2023-01-07T10:39:53.427Z,102170.44
2023-01-07T10:42:20.472Z,102166.13
2023-01-07T10:45:16.617Z,102157.78
2023-01-07T10:47:49.418Z,102160.56
2023-01-07T10:50:19.286Z,102158.34
2023-01-07T10:52:52.488Z,102153.28
2023-01-07T10:56:05.549Z,102157.41
2023-01-07T10:58:44.799Z,102153.59
2023-01-07T11:01:22.725Z,102140.50
2023-01-07T11:03:55.089Z,102130.81
2023-01-07T11:06:29.669Z,102144.19
2023-01-07T11:08:56.818Z,102135.56
2023-01-07T11:11:24.712Z,102122.00
2023-01-07T11:13:59.983Z,102128.16
2023-01-07T11:16:31.813Z,102134.56
2023-01-07T11:19:06.284Z,102125.56
2023-01-07T11:21:44.676Z,102129.38
2023-01-07T11:24:33.721Z,102125.53
2023-01-07T11:27:12.895Z,102123.44
2023-01-07T11:29:58.457Z,102124.53
2023-01-07T11:32:29.038Z,102111.81
2023-01-07T11:35:02.276Z,102120.38
2023-01-07T11:37:32.086Z,102121.22
2023-01-07T11:40:01.271Z,102110.69
2023-01-07T11:42:38.685Z,102111.53
2023-01-07T11:45:11.624Z,102114.47
2023-01-07T11:47:44.405Z,102105.53
2023-01-07T11:50:30.390Z,102100.16
2023-01-07T11:53:00.186Z,102095.22
2023-01-07T11:55:28.827Z,102083.69
2023-01-07T11:58:27.726Z,102076.66
2023-01-07T12:00:44.002Z,102083.41
2023-01-07T12:03:13.569Z,102082.84
2023-01-07T12:05:45.044Z,102085.06
2023-01-07T12:08:22.894Z,102080.88
2023-01-07T12:11:07.085Z,102073.91
2023-01-07T12:13:35.705Z,102062.81
2023-01-07T12:16:05.996Z,102060.59
2023-01-07T12:19:02.761Z,102050.97
2023-01-07T12:22:14.222Z,102049.47
2023-01-07T12:25:11.138Z,102050.38
2023-01-07T12:27:46.992Z,102042.75
2023-01-07T12:30:43.989Z,102026.91
2023-01-07T12:33:26.921Z,102031.47
2023-01-07T12:35:58.181Z,102019.59
2023-01-07T12:38:34.810Z,102031.44
2023-01-07T12:41:37.304Z,102021.19
2023-01-07T12:44:16.413Z,102020.44
2023-01-07T12:47:32.379Z,102025.16
2023-01-07T12:50:18.213Z,102017.06
2023-01-07T12:53:27.716Z,102018.72
2023-01-07T12:56:00.199Z,102010.50
2023-01-07T12:58:51.405Z,102021.09
2023-01-07T13:01:27.726Z,102014.63
2023-01-07T13:04:13.419Z,102009.38
2023-01-07T13:06:53.720Z,102010.84
2023-01-07T13:09:29.859Z,102009.69
2023-01-07T13:12:40.629Z,102011.41
2023-01-07T13:15:23.422Z,101997.91
2023-01-07T13:17:53.540Z,102003.09
2023-01-07T13:20:51.431Z,102007.03
2023-01-07T13:23:25.444Z,102003.78
2023-01-07T13:25:55.353Z,102004.91
2023-01-07T13:28:41.210Z,102006.63
2023-01-07T13:31:35.696Z,102002.06
2023-01-07T13:34:11.081Z,102006.25
2023-01-07T13:36:46.423Z,101996.75
2023-01-07T13:39:55.896Z,101997.47
2023-01-07T13:42:37.339Z,101995.97
2023-01-07T13:45:21.783Z,101994.91
2023-01-07T13:48:00.669Z,101995.91
2023-01-07T13:50:41.475Z,101996.34
2023-01-07T13:53:14.453Z,101988.38
2023-01-07T13:55:46.697Z,101989.03
2023-01-07T13:58:29.120Z,101992.34
2023-01-07T14:01:11.240Z,101995.84
2023-01-07T14:03:44.219Z,101989.16
2023-01-07T14:06:20.467Z,101993.53
2023-01-07T14:09:06.262Z,101997.16
2023-01-07T14:11:33.373Z,101991.75
2023-01-07T14:14:00.413Z,101994.84
2023-01-07T14:16:42.678Z,102002.72
2023-01-07T14:19:25.656Z,101998.97
2023-01-07T14:21:55.430Z,101993.06
2023-01-07T14:24:38.448Z,101994.03
2023-01-07T14:27:27.231Z,102003.66
2023-01-07T14:30:02.830Z,101992.13
2023-01-07T14:32:38.288Z,101992.28
2023-01-07T14:35:07.775Z,101995.19
2023-01-07T14:37:40.350Z,101985.81
2023-01-07T14:40:26.066Z,102002.25
2023-01-07T14:42:53.819Z,101985.59
2023-01-07T14:45:39.048Z,101987.56
2023-01-07T14:48:08.883Z,101987.91
2023-01-07T14:51:13.419Z,101986.31
2023-01-07T14:53:43.387Z,101985.00
2023-01-07T14:56:13.240Z,101985.59
2023-01-07T14:59:10.875Z,101984.41
2023-01-07T15:01:44.021Z,101987.38
2023-01-07T15:04:53.190Z,101980.44
2023-01-07T15:07:24.662Z,101985.47
2023-01-07T15:10:16.682Z,101986.66
2023-01-07T15:12:54.934Z,101982.66
2023-01-07T15:15:45.302Z,101976.38
2023-01-07T15:18:13.430Z,101977.22
2023-01-07T15:21:01.963Z,101973.31
2023-01-07T15:23:46.094Z,101961.06
2023-01-07T15:26:52.074Z,101963.13
2023-01-07T15:29:30.181Z,101961.81
2023-01-07T15:32:06.549Z,101956.44
2023-01-07T15:34:33.679Z,101950.56
2023-01-07T15:37:05.314Z,101954.03
2023-01-07T15:39:40.254Z,101956.59
2023-01-07T15:42:15.332Z,101948.47
2023-01-07T15:44:43.147Z,101954.94
2023-01-07T15:47:34.309Z,101956.75
2023-01-07T15:50:24.725Z,101951.47
2023-01-07T15:53:05.686Z,101949.81
2023-01-07T15:55:38.562Z,101941.22
2023-01-07T15:58:16.104Z,101947.63
2023-01-07T16:00:43.472Z,101944.78
2023-01-07T16:03:16.761Z,101948.41
2023-01-07T16:05:44.067Z,101951.19
2023-01-07T16:08:33.379Z,101945.22
2023-01-07T16:11:03.107Z,101946.06
2023-01-07T16:13:32.003Z,101953.25
2023-01-07T16:16:03.403Z,101953.16
2023-01-07T16:18:34.307Z,101949.09
2023-01-07T16:21:09.337Z,101957.88
2023-01-07T16:23:38.117Z,101948.19
2023-01-07T16:26:13.218Z,101946.50
2023-01-07T16:28:44.856Z,101943.03
2023-01-07T16:31:15.220Z,101939.81
2023-01-07T16:33:43.478Z,101947.81
2023-01-07T16:36:20.885Z,101949.56
2023-01-07T16:38:52.010Z,101948.75
2023-01-07T16:41:20.913Z,101946.09
2023-01-07T16:43:48.668Z,101943.53
2023-01-07T16:46:24.923Z,101939.13
2023-01-07T16:49:20.366Z,101937.19
2023-01-07T16:51:50.452Z,101937.31
2023-01-07T16:54:19.514Z,101933.75
2023-01-07T16:56:51.920Z,101935.59
2023-01-07T16:59:21.057Z,101940.09
2023-01-07T17:01:48.700Z,101941.00
2023-01-07T17:04:28.004Z,101934.91
2023-01-07T17:06:55.873Z,101939.44
2023-01-07T17:09:25.040Z,101933.41
2023-01-07T17:11:53.638Z,101929.91
2023-01-07T17:14:36.580Z,101929.00
2023-01-07T17:17:06.564Z,101926.53
2023-01-07T17:19:39.456Z,101920.25
2023-01-07T17:22:31.123Z,101932.56
2023-01-07T17:25:09.490Z,101931.88
2023-01-07T17:27:44.989Z,101937.09
2023-01-07T17:30:17.629Z,101932.50
2023-01-07T17:32:46.736Z,101930.72
2023-01-07T17:35:20.056Z,101928.25
2023-01-07T17:37:47.570Z,101938.06
2023-01-07T17:40:15.374Z,101934.53
2023-01-07T17:43:01.793Z,101934.75
2023-01-07T17:45:29.275Z,101939.00
2023-01-07T17:47:58.673Z,101932.97
2023-01-07T17:50:34.451Z,101939.13
2023-01-07T17:53:01.960Z,101936.47
2023-01-07T17:55:31.519Z,101942.53
2023-01-07T17:57:58.614Z,101940.03
2023-01-07T18:00:28.431Z,101940.94
2023-01-07T18:02:57.262Z,101933.72
2023-01-07T18:05:26.100Z,101931.94
2023-01-07T18:07:53.350Z,101937.31
2023-01-07T18:10:25.066Z,101940.88
2023-01-07T18:12:52.177Z,101936.47
2023-01-07T18:15:24.728Z,101949.97
2023-01-07T18:17:52.395Z,101941.13
2023-01-07T18:20:22.213Z,101943.66
2023-01-07T18:22:49.602Z,101947.28
2023-01-07T18:25:19.705Z,101952.56
2023-01-07T18:27:47.647Z,101946.53
2023-01-07T18:30:18.808Z,101942.22
2023-01-07T18:32:46.206Z,101940.56
2023-01-07T18:35:14.363Z,101940.56
2023-01-07T18:37:41.642Z,101942.38
2023-01-07T18:40:09.466Z,101934.56
2023-01-07T18:42:36.948Z,101951.41
2023-01-07T18:45:05.381Z,101955.81
2023-01-07T18:47:32.994Z,101954.06
2023-01-07T18:50:00.208Z,101956.69
2023-01-07T18:52:28.807Z,101963.63
2023-01-07T18:54:55.926Z,101957.66
2023-01-07T18:57:23.046Z,101953.16
2023-01-07T18:59:50.203Z,101954.22
2023-01-07T19:02:19.830Z,101950.88
2023-01-07T19:04:50.536Z,101944.75
2023-01-07T19:07:18.786Z,101953.56
2023-01-07T19:09:46.024Z,101956.16
2023-01-07T19:12:13.504Z,101957.97
2023-01-07T19:14:41.252Z,101945.81
2023-01-07T19:17:08.470Z,101952.69
2023-01-07T19:19:47.297Z,101947.47
2023-01-07T19:22:16.252Z,101956.97
2023-01-07T19:24:44.491Z,101951.84
2023-01-07T19:27:11.965Z,101951.69
2023-01-07T19:29:39.086Z,101949.84
2023-01-07T19:32:06.263Z,101943.91
2023-01-07T19:34:33.481Z,101938.69
2023-01-07T19:37:00.626Z,101942.19
2023-01-07T19:39:27.728Z,101935.31
2023-01-07T19:41:54.859Z,101934.47
2023-01-07T19:44:22.014Z,101948.84
2023-01-07T19:46:49.120Z,101947.19
2023-01-07T19:49:16.205Z,101955.94
2023-01-07T19:51:43.772Z,101960.34
2023-01-07T19:54:17.622Z,101952.44
2023-01-07T19:56:44.839Z,101946.22
2023-01-07T19:59:12.044Z,101948.66
2023-01-07T20:01:39.544Z,101948.59
2023-01-07T20:04:08.433Z,101952.88
2023-01-07T20:06:41.155Z,101943.97
2023-01-07T20:09:12.365Z,101952.13
2023-01-07T20:11:40.541Z,101951.44
2023-01-07T20:14:07.840Z,101956.44
2023-01-07T20:16:36.778Z,101957.34
2023-01-07T20:19:05.279Z,101960.63
2023-01-07T20:21:33.291Z,101956.22
2023-01-07T20:24:00.416Z,101956.22
2023-01-07T20:26:29.740Z,101949.19
2023-01-07T20:28:58.206Z,101962.94
2023-01-07T20:31:27.097Z,101960.63
2023-01-07T20:33:57.590Z,101958.84
2023-01-07T20:36:32.648Z,101958.84
2023-01-07T20:39:05.424Z,101959.72
2023-01-07T20:41:34.447Z,101958.22
2023-01-07T20:44:03.799Z,101953.56
2023-01-07T20:46:33.387Z,101951.91
2023-01-07T20:49:01.068Z,101960.03
2023-01-07T20:51:28.212Z,101963.50
2023-01-07T20:53:55.522Z,101962.53
2023-01-07T20:56:24.010Z,101963.50
2023-01-07T20:58:51.216Z,101957.34
2023-01-07T21:01:21.042Z,101952.94
2023-01-07T21:03:48.923Z,101950.34
2023-01-07T21:06:18.304Z,101942.53
2023-01-07T21:08:46.902Z,101934.59
2023-01-07T21:11:17.403Z,101930.41
2023-01-07T21:13:44.962Z,101931.09
2023-01-07T21:16:12.569Z,101923.28
2023-01-07T21:18:40.941Z,101912.66
2023-01-07T21:21:13.837Z,101917.16
2023-01-07T21:23:41.618Z,101913.03
2023-01-07T21:26:09.857Z,101913.25
2023-01-07T21:28:36.973Z,101921.22
2023-01-07T21:31:08.779Z,101910.66
2023-01-07T21:33:36.805Z,101911.72
2023-01-07T21:36:18.529Z,101912.56
2023-01-07T21:38:46.763Z,101913.25
2023-01-07T21:41:16.136Z,101913.31
2023-01-07T21:43:44.396Z,101903.53
2023-01-07T21:46:12.213Z,101902.56
2023-01-07T21:48:41.187Z,101897.41
2023-01-07T21:51:13.336Z,101895.78
2023-01-07T21:53:40.458Z,101893.09
2023-01-07T21:56:14.931Z,101887.69
2023-01-07T21:58:43.660Z,101887.91
2023-01-07T22:01:11.069Z,101884.44
2023-01-07T22:03:38.426Z,101885.22
2023-01-07T22:06:17.347Z,101885.41
2023-01-07T22:08:44.419Z,101892.56
2023-01-07T22:11:17.257Z,101893.47
2023-01-07T22:13:44.368Z,101895.19
2023-01-07T22:16:11.525Z,101884.78
2023-01-07T22:18:38.724Z,101877.78
2023-01-07T22:21:05.901Z,101871.88
2023-01-07T22:23:33.051Z,101878.19
2023-01-07T22:26:07.194Z,101890.47
2023-01-07T22:28:36.936Z,101901.22
2023-01-07T22:31:19.081Z,101890.56
2023-01-07T22:33:46.276Z,101892.13
2023-01-07T22:36:31.319Z,101901.81
2023-01-07T22:39:07.205Z,101895.75
2023-01-07T22:41:35.074Z,101898.16
2023-01-07T22:44:06.796Z,101900.81
2023-01-07T22:46:36.196Z,101899.13
2023-01-07T22:49:03.344Z,101895.53
2023-01-07T22:51:38.593Z,101891.03
2023-01-07T22:54:06.241Z,101884.75
2023-01-07T22:56:34.524Z,101882.22
2023-01-07T22:59:01.625Z,101887.41
2023-01-07T23:01:28.790Z,101878.66
2023-01-07T23:03:55.913Z,101869.88
2023-01-07T23:06:23.355Z,101865.41
2023-01-07T23:08:50.451Z,101858.41
2023-01-07T23:11:35.872Z,101866.38
2023-01-07T23:14:03.389Z,101865.06
2023-01-07T23:16:30.635Z,101856.94
2023-01-07T23:18:57.789Z,101850.81
2023-01-07T23:21:24.885Z,101852.63
2023-01-07T23:23:51.971Z,101856.31
2023-01-07T23:26:19.110Z,101849.25
2023-01-07T23:28:46.206Z,101837.78
2023-01-07T23:31:13.323Z,101839.72
2023-01-07T23:33:40.420Z,101839.66
2023-01-07T23:36:09.552Z,101841.28
2023-01-07T23:38:37.080Z,101836.78
2023-01-07T23:41:07.128Z,101832.50
2023-01-07T23:43:35.047Z,101829.84
2023-01-07T23:46:05.401Z,101827.28
2023-01-07T23:48:34.221Z,101822.00
2023-01-07T23:51:10.060Z,101818.53
2023-01-07T23:53:37.713Z,101802.00
2023-01-07T23:56:05.883Z,101806.50
2023-01-07T23:58:33.549Z,101812.53
